Time;durP1;ratioP1;P1;durP2;ratioP2;P2;SDS_P1;SDS_P2;PMS_P1;PMS_P2;Temp;Humidity;BMP_temperature;BMP_pressure;BME280_temperature;BME280_humidity;BME280_pressure;Samples;Min_cycle;Max_cycle;Signal;HPM_P1;HPM_P2
2021/09/08 05:00:33;;;;;;;6.45;2.70;;;;;;;11.86;89.68;95544.22;6064344;23;20040;-78
2021/09/08 05:02:58;;;;;;;5.40;2.90;;;;;;;12.28;87.82;95559.56;4930970;29;20047;-81
2021/09/08 05:05:24;;;;;;;6.15;2.95;;;;;;;11.79;89.34;95564.81;4946266;29;20036;-82
2021/09/08 05:07:49;;;;;;;9.75;3.13;;;;;;;12.08;89.29;95567.72;4945710;29;20098;-81
2021/09/08 05:10:15;;;;;;;5.40;2.85;;;;;;;12.27;88.40;95570.91;4949421;29;20543;-81
2021/09/08 05:12:40;;;;;;;3.10;2.15;;;;;;;12.74;86.95;95563.97;4944953;29;20024;-80
2021/09/08 05:15:06;;;;;;;4.90;2.55;;;;;;;12.79;87.02;95566.88;4934954;29;20032;-80
2021/09/08 05:17:31;;;;;;;3.15;2.30;;;;;;;13.07;86.34;95565.41;4943686;29;20465;-80
2021/09/08 05:19:57;;;;;;;4.00;2.80;;;;;;;13.30;85.54;95562.06;4950038;28;20384;-80
2021/09/08 05:22:22;;;;;;;4.10;2.60;;;;;;;13.76;83.67;95561.09;4941701;29;20098;-81
2021/09/08 05:24:48;;;;;;;6.38;2.65;;;;;;;13.68;82.41;95554.16;4930741;29;20067;-80
2021/09/08 05:27:13;;;;;;;5.50;2.10;;;;;;;14.08;80.81;95549.59;4932895;29;20457;-78
2021/09/08 05:29:38;;;;;;;6.40;2.03;;;;;;;14.34;80.55;95549.22;4948991;29;20538;-79
2021/09/08 05:32:04;;;;;;;6.00;2.15;;;;;;;15.28;76.35;95534.34;4953780;29;20031;-79
2021/09/08 05:34:30;;;;;;;6.53;2.33;;;;;;;17.12;69.29;95530.44;4952195;29;20082;-79
2021/09/08 05:36:55;;;;;;;2.55;1.98;;;;;;;16.39;70.85;95522.41;4954001;29;20046;-79
2021/09/08 05:39:20;;;;;;;2.70;2.30;;;;;;;14.24;77.24;95532.03;4951965;29;20038;-79
2021/09/08 05:41:46;;;;;;;6.35;2.53;;;;;;;14.73;78.59;95531.50;4953759;29;20058;-79
2021/09/08 05:44:11;;;;;;;4.28;3.00;;;;;;;15.42;76.66;95522.22;4953035;29;20034;-78
2021/09/08 05:46:37;;;;;;;4.10;2.78;;;;;;;15.13;77.35;95519.72;4938327;29;20027;-78
2021/09/08 05:49:02;;;;;;;5.25;2.38;;;;;;;15.05;77.81;95522.44;4934525;29;20397;-80
2021/09/08 05:51:28;;;;;;;5.47;2.35;;;;;;;14.76;78.56;95524.13;4932621;29;20442;-79
2021/09/08 05:53:53;;;;;;;3.03;1.92;;;;;;;15.12;77.30;95524.13;4934586;29;20335;-79
2021/09/08 05:56:18;;;;;;;3.28;2.05;;;;;;;14.94;76.63;95533.34;4932922;29;20027;-82
2021/09/08 05:58:44;;;;;;;3.50;1.92;;;;;;;14.94;76.39;95530.75;4934228;29;20020;-78
2021/09/08 06:01:09;;;;;;;2.80;1.65;;;;;;;15.27;75.64;95527.50;4932307;29;20047;-76
2021/09/08 06:03:35;;;;;;;3.45;1.95;;;;;;;15.81;73.57;95525.22;4933901;29;20032;-79
2021/09/08 06:06:00;;;;;;;4.22;2.03;;;;;;;15.92;72.90;95520.50;4933516;29;20034;-77
2021/09/08 06:08:28;;;;;;;3.90;1.70;;;;;;;16.01;71.89;95519.34;4933053;29;20458;-78
2021/09/08 06:10:54;;;;;;;3.53;1.83;;;;;;;16.39;70.20;95518.00;4933918;29;20063;-81
2021/09/08 06:13:19;;;;;;;3.88;1.60;;;;;;;16.48;70.10;95521.25;4932252;29;20042;-78
2021/09/08 06:15:45;;;;;;;4.78;1.90;;;;;;;16.27;70.39;95519.53;4947183;29;20035;-78
2021/09/08 06:18:10;;;;;;;2.08;1.88;;;;;;;16.52;68.74;95512.84;4951872;29;20432;-75
2021/09/08 06:20:35;;;;;;;4.05;2.30;;;;;;;16.20;69.16;95508.22;4952807;29;20416;-78
2021/09/08 06:23:01;;;;;;;3.45;2.08;;;;;;;16.10;69.41;95518.22;4951908;29;20028;-80
2021/09/08 06:25:28;;;;;;;4.05;2.10;;;;;;;16.28;68.50;95514.09;4952492;29;20027;-77
2021/09/08 06:27:53;;;;;;;3.10;1.52;;;;;;;16.95;67.59;95516.09;4952646;29;20109;-79
2021/09/08 06:30:19;;;;;;;4.75;1.85;;;;;;;16.50;66.91;95524.50;4951401;29;20035;-82
2021/09/08 06:32:44;;;;;;;2.38;1.52;;;;;;;16.73;67.20;95525.84;4952129;29;20035;-79
2021/09/08 06:35:10;;;;;;;4.10;1.90;;;;;;;17.01;66.30;95522.34;4932454;29;20032;-78
2021/09/08 06:37:35;;;;;;;4.65;1.60;;;;;;;16.41;68.73;95520.44;4944858;28;20030;-78
2021/09/08 06:40:00;;;;;;;2.83;1.70;;;;;;;16.55;67.86;95524.75;4949078;29;20031;-77
2021/09/08 06:42:26;;;;;;;3.13;1.83;;;;;;;17.81;64.73;95522.34;4933352;29;20023;-76
2021/09/08 06:44:55;;;;;;;2.05;1.48;;;;;;;17.13;65.15;95526.81;4948711;29;20046;-80
2021/09/08 06:47:21;;;;;;;2.07;1.60;;;;;;;16.91;67.20;95530.56;4951768;29;20094;-81
2021/09/08 06:49:47;;;;;;;3.88;1.60;;;;;;;16.95;65.75;95520.53;4952247;29;20493;-84
2021/09/08 06:52:13;;;;;;;2.58;1.70;;;;;;;17.42;63.46;95530.13;4950988;29;20090;-85
2021/09/08 06:54:38;;;;;;;4.05;1.77;;;;;;;17.81;62.61;95524.97;4952435;29;20031;-82
2021/09/08 06:57:04;;;;;;;4.47;1.50;;;;;;;17.42;64.79;95520.47;4950931;29;20459;-84
2021/09/08 06:59:29;;;;;;;3.47;1.50;;;;;;;17.33;64.29;95529.50;4952615;29;20019;-87
2021/09/08 07:01:54;;;;;;;1.60;1.50;;;;;;;19.17;58.08;95524.13;4950770;29;20047;-86
2021/09/08 07:04:20;;;;;;;5.10;1.75;;;;;;;17.71;59.94;95529.81;4952034;29;20028;-82
2021/09/08 07:06:45;;;;;;;2.17;1.58;;;;;;;18.14;60.26;95527.59;4950766;29;20034;-86
2021/09/08 07:09:11;;;;;;;3.75;1.48;;;;;;;18.88;60.04;95530.66;4929559;29;20019;-85
2021/09/08 07:11:36;;;;;;;2.63;1.67;;;;;;;19.79;56.82;95533.88;4945614;29;20034;-84
2021/09/08 07:14:02;;;;;;;3.65;1.60;;;;;;;19.91;56.29;95534.78;4940613;29;20034;-81
2021/09/08 07:16:28;;;;;;;3.42;1.58;;;;;;;18.75;57.58;95533.38;4922137;29;20030;-82
2021/09/08 07:18:53;;;;;;;3.30;1.70;;;;;;;19.58;56.63;95535.03;4939591;29;20374;-82
2021/09/08 07:21:19;;;;;;;1.70;1.20;;;;;;;19.35;56.55;95534.72;4942139;29;20452;-85
2021/09/08 07:23:44;;;;;;;2.58;1.30;;;;;;;18.67;57.86;95538.81;4941564;29;20031;-76
2021/09/08 07:26:09;;;;;;;5.38;1.95;;;;;;;18.94;57.18;95538.53;4942217;29;20031;-81
2021/09/08 07:28:35;;;;;;;2.45;1.30;;;;;;;20.83;55.80;95542.69;4941586;29;20032;-77
2021/09/08 07:31:00;;;;;;;2.95;2.22;;;;;;;19.17;56.20;95540.66;4929327;29;20036;-76
2021/09/08 07:33:26;;;;;;;2.60;1.77;;;;;;;18.92;56.94;95542.38;4937684;29;20020;-82
2021/09/08 07:35:51;;;;;;;2.67;1.30;;;;;;;19.67;56.62;95546.09;4931963;29;20027;-77
2021/09/08 07:38:18;;;;;;;5.63;1.60;;;;;;;20.07;54.13;95541.38;4920778;29;20035;-80
2021/09/08 07:40:43;;;;;;;4.82;1.88;;;;;;;18.74;56.97;95542.25;4926927;29;20556;-82
2021/09/08 07:43:09;;;;;;;3.28;1.45;;;;;;;18.73;56.71;95545.88;4914314;29;20111;-86
2021/09/08 07:45:34;;;;;;;2.63;1.20;;;;;;;19.41;56.04;95547.06;4935372;29;20027;-82
2021/09/08 07:48:00;;;;;;;2.63;1.40;;;;;;;19.43;54.75;95553.69;4949056;29;20027;-82
2021/09/08 07:50:25;;;;;;;2.72;1.52;;;;;;;19.70;53.78;95546.47;4948255;28;20035;-79
2021/09/08 07:52:51;;;;;;;2.88;1.10;;;;;;;19.76;53.54;95543.00;4932715;29;20035;-85
2021/09/08 07:55:16;;;;;;;2.55;1.70;;;;;;;19.95;52.66;95547.31;4930030;29;20032;-79
2021/09/08 07:57:42;;;;;;;4.03;1.30;;;;;;;19.17;54.14;95538.03;4917318;29;20032;-80
2021/09/08 08:00:08;;;;;;;2.33;1.60;;;;;;;18.77;55.37;95553.16;4936904;29;20038;-83
2021/09/08 08:02:43;;;;;;;3.25;1.70;;;;;;;19.45;54.11;95546.44;4925884;29;20524;-80
2021/09/08 08:05:09;;;;;;;2.38;1.55;;;;;;;20.95;51.09;95534.84;4934265;29;20424;-78
2021/09/08 08:07:35;;;;;;;2.72;1.67;;;;;;;20.71;52.41;95539.16;4942801;29;20038;-78
2021/09/08 08:10:00;;;;;;;2.22;1.38;;;;;;;20.43;51.53;95544.09;4949488;28;20444;-77
2021/09/08 08:12:28;;;;;;;2.80;1.38;;;;;;;19.85;51.71;95536.47;4950924;28;20031;-80
2021/09/08 08:14:54;;;;;;;3.97;1.63;;;;;;;19.36;52.95;95544.22;4948192;29;20517;-80
2021/09/08 08:17:19;;;;;;;5.32;1.75;;;;;;;19.64;51.17;95533.38;4950716;28;20031;-76
2021/09/08 08:19:47;;;;;;;1.75;1.40;;;;;;;19.13;53.59;95525.53;4949440;28;20497;-88
2021/09/08 08:22:14;;;;;;;3.45;1.80;;;;;;;20.14;53.21;95521.84;4946840;28;20028;-80
2021/09/08 08:24:39;;;;;;;3.55;3.22;;;;;;;20.82;53.43;95527.91;4938791;29;20540;-84
2021/09/08 08:27:05;;;;;;;2.78;2.03;;;;;;;20.30;50.75;95526.59;4949542;28;20023;-83
2021/09/08 08:29:30;;;;;;;5.10;1.70;;;;;;;20.37;50.37;95521.28;4949417;29;20496;-80
2021/09/08 08:31:56;;;;;;;2.05;1.70;;;;;;;20.50;49.33;95513.25;4949159;28;20031;-83
2021/09/08 08:34:21;;;;;;;3.58;1.48;;;;;;;20.30;49.62;95518.72;4941466;28;20411;-84
2021/09/08 08:36:47;;;;;;;4.78;1.95;;;;;;;20.89;49.43;95512.03;4929825;29;20107;-82
2021/09/08 08:39:12;;;;;;;2.00;1.42;;;;;;;21.11;47.36;95517.66;4931977;29;20032;-76
2021/09/08 08:41:38;;;;;;;2.35;1.70;;;;;;;20.65;48.66;95521.59;4945296;29;20027;-77
2021/09/08 08:44:04;;;;;;;3.75;1.60;;;;;;;20.40;48.72;95521.66;4930553;29;20035;-78
2021/09/08 08:46:29;;;;;;;2.67;1.40;;;;;;;20.60;47.42;95512.75;4933511;29;20034;-80
2021/09/08 08:48:55;;;;;;;2.28;1.60;;;;;;;20.03;48.12;95519.94;4942831;29;20731;-77
2021/09/08 08:51:21;;;;;;;1.73;1.63;;;;;;;20.32;46.38;95521.94;4946362;28;20416;-77
2021/09/08 08:53:49;;;;;;;2.90;1.90;;;;;;;20.13;47.96;95514.97;4946896;29;20019;-80
2021/09/08 08:56:14;;;;;;;1.80;1.70;;;;;;;20.84;48.68;95515.31;4940818;29;20044;-75
2021/09/08 08:58:40;;;;;;;4.00;2.00;;;;;;;21.44;47.12;95513.59;4929795;29;20039;-76
2021/09/08 09:01:15;;;;;;;2.45;1.52;;;;;;;20.43;47.80;95510.69;4947212;28;20044;-80
2021/09/08 09:03:40;;;;;;;2.97;1.20;;;;;;;21.09;47.14;95515.28;4953911;29;20532;-76
2021/09/08 09:06:06;;;;;;;1.48;1.38;;;;;;;21.26;45.04;95510.16;4953357;29;20083;-77
2021/09/08 09:08:33;;;;;;;2.50;1.50;;;;;;;21.52;45.52;95513.25;4936768;29;20413;-76
2021/09/08 09:10:58;;;;;;;5.50;1.65;;;;;;;20.26;48.17;95511.44;4948717;29;20035;-75
2021/09/08 09:13:30;;;;;;;2.05;1.50;;;;;;;20.77;48.24;95511.16;4934598;29;20027;-76
2021/09/08 09:16:06;;;;;;;3.38;1.70;;;;;;;20.09;49.24;95508.56;4916809;29;20024;-79
2021/09/08 09:18:44;;;;;;;2.72;2.38;;;;;;;20.15;48.34;95505.06;4934431;29;20051;-76
2021/09/08 09:21:11;;;;;;;2.28;1.60;;;;;;;20.45;47.01;95508.63;4937452;29;20421;-75
2021/09/08 09:23:42;;;;;;;2.40;1.80;;;;;;;20.42;47.14;95511.72;4933496;29;20030;-76
2021/09/08 09:26:08;;;;;;;3.45;1.73;;;;;;;20.70;45.50;95513.06;4934797;29;20042;-76
2021/09/08 09:28:39;;;;;;;1.98;1.55;;;;;;;20.46;47.11;95506.81;4933097;29;20481;-77
2021/09/08 09:31:32;;;;;;;1.52;1.40;;;;;;;20.57;48.29;95514.00;4934541;29;20508;-76
2021/09/08 09:33:57;;;;;;;6.55;1.90;;;;;;;20.47;46.83;95503.97;4948893;29;20043;-81
2021/09/08 09:36:30;;;;;;;2.05;1.60;;;;;;;20.34;48.49;95501.47;4947963;29;20035;-73
2021/09/08 09:38:55;;;;;;;3.13;1.83;;;;;;;19.51;48.31;95505.34;4953996;29;20027;-77
2021/09/08 09:41:31;;;;;;;4.45;1.60;;;;;;;20.02;47.67;95496.47;4944823;29;20042;-73
2021/09/08 09:44:09;;;;;;;1.70;1.30;;;;;;;19.46;49.04;95492.84;4944197;29;20158;-74
2021/09/08 09:46:35;;;;;;;1.48;1.35;;;;;;;19.43;48.74;95490.63;4930939;29;20036;-76
2021/09/08 09:49:02;;;;;;;1.40;1.30;;;;;;;20.00;49.30;95494.06;4932443;29;20509;-79
2021/09/08 09:51:27;;;;;;;3.22;1.50;;;;;;;20.58;48.32;95496.38;4936886;29;20039;-83
2021/09/08 09:53:53;;;;;;;2.88;1.70;;;;;;;20.81;48.52;95493.88;4918357;29;20424;-80
2021/09/08 09:56:18;;;;;;;3.35;1.20;;;;;;;20.08;48.04;95491.16;4951075;29;20026;-81
2021/09/08 09:58:44;;;;;;;2.10;1.65;;;;;;;19.69;48.60;95494.09;4927028;29;20132;-80
2021/09/08 10:01:09;;;;;;;2.35;1.52;;;;;;;19.90;48.77;95491.13;4936686;29;20457;-77
2021/09/08 10:03:35;;;;;;;2.60;1.80;;;;;;;19.30;50.54;95495.94;4940250;28;20030;-82
2021/09/08 10:06:00;;;;;;;2.88;1.88;;;;;;;20.25;48.68;95492.22;4940911;29;20469;-83
2021/09/08 10:08:31;;;;;;;3.50;1.92;;;;;;;19.20;50.80;95463.28;4936897;28;20027;-87
2021/09/08 10:10:57;;;;;;;2.08;1.50;;;;;;;20.50;50.04;95486.94;4943395;29;20135;-76
2021/09/08 10:13:32;;;;;;;1.70;1.60;;;;;;;19.57;50.24;95482.66;4964163;28;20046;-77
2021/09/08 10:15:58;;;;;;;1.85;1.65;;;;;;;20.29;48.80;95479.47;4950577;29;20034;-78
2021/09/08 10:18:25;;;;;;;2.55;1.58;;;;;;;19.55;50.94;95475.00;4953397;28;20037;-79
2021/09/08 10:21:08;;;;;;;1.88;1.50;;;;;;;20.32;49.79;95473.78;4951139;28;20028;-79
2021/09/08 10:23:40;;;;;;;2.50;1.50;;;;;;;19.48;51.82;95474.25;4952670;29;20034;-81
2021/09/08 10:26:28;;;;;;;5.97;1.40;;;;;;;19.64;49.96;95483.44;4951700;29;20105;-83
2021/09/08 10:28:53;;;;;;;2.05;1.85;;;;;;;19.51;50.95;95480.91;4951300;28;20027;-79
2021/09/08 10:31:19;;;;;;;2.30;1.85;;;;;;;20.12;49.56;95481.81;4945576;29;20060;-80
2021/09/08 10:33:44;;;;;;;1.60;1.50;;;;;;;20.57;47.81;95473.72;4918583;29;20079;-79
2021/09/08 10:36:11;;;;;;;2.03;1.35;;;;;;;21.01;47.86;95465.47;4933124;29;20046;-79
2021/09/08 10:38:36;;;;;;;4.72;1.40;;;;;;;21.20;47.92;95461.81;4934672;29;20039;-82
2021/09/08 10:41:07;;;;;;;2.70;1.52;;;;;;;21.21;48.21;95468.69;4936027;29;20032;-79
2021/09/08 10:43:34;;;;;;;2.15;1.55;;;;;;;21.16;48.56;95465.91;4929542;29;20023;-79
2021/09/08 10:46:00;;;;;;;4.78;1.77;;;;;;;20.81;49.46;95457.81;4930871;29;20023;-80
2021/09/08 10:48:39;;;;;;;2.28;1.45;;;;;;;20.82;47.72;95462.06;4950509;29;20027;-81
2021/09/08 10:51:06;;;;;;;3.23;1.37;;;;;;;21.28;47.88;95445.69;4947355;28;20513;-82
2021/09/08 10:53:32;;;;;;;2.60;1.45;;;;;;;21.22;48.13;95456.31;4932345;29;20545;-80
2021/09/08 10:55:58;;;;;;;2.85;1.80;;;;;;;20.95;47.75;95458.47;4949138;29;20020;-83
2021/09/08 10:58:23;;;;;;;2.50;1.60;;;;;;;20.89;48.67;95459.34;4947666;29;20433;-77
2021/09/08 11:00:49;;;;;;;1.60;1.50;;;;;;;20.93;48.17;95460.53;4947203;29;20031;-83
2021/09/08 11:03:15;;;;;;;4.38;1.60;;;;;;;20.97;47.71;95457.22;4909147;29;20039;-78
2021/09/08 11:05:59;;;;;;;1.52;1.42;;;;;;;21.32;47.54;95464.50;4929595;29;20036;-77
2021/09/08 11:08:27;;;;;;;2.53;1.88;;;;;;;21.68;47.12;95458.25;4893811;29;20121;-78
2021/09/08 11:11:16;;;;;;;3.85;1.63;;;;;;;21.31;48.53;95458.41;4926574;29;20036;-77
2021/09/08 11:13:43;;;;;;;2.35;1.77;;;;;;;20.88;47.81;95455.91;4913568;29;20489;-79
2021/09/08 11:16:19;;;;;;;2.15;1.70;;;;;;;20.61;47.21;95451.19;4931438;29;20039;-82
2021/09/08 11:18:45;;;;;;;2.80;1.63;;;;;;;21.19;48.55;95449.63;4915763;29;20086;-78
2021/09/08 11:21:10;;;;;;;5.05;1.50;;;;;;;21.16;47.38;95454.59;4929630;29;20036;-85
2021/09/08 11:23:36;;;;;;;1.65;1.25;;;;;;;21.67;47.50;95441.66;4896385;29;20611;-78
2021/09/08 11:26:09;;;;;;;2.10;1.55;;;;;;;21.03;47.56;95444.97;4912280;29;20469;-86
2021/09/08 11:28:35;;;;;;;2.83;1.58;;;;;;;21.46;47.25;95445.63;4896399;29;20060;-80
2021/09/08 11:31:16;;;;;;;3.60;1.30;;;;;;;21.43;47.40;95443.44;4913290;29;20028;-78
2021/09/08 11:33:41;;;;;;;7.32;2.17;;;;;;;21.03;48.81;95450.22;4912282;29;20406;-83
2021/09/08 11:36:17;;;;;;;2.97;1.80;;;;;;;19.63;49.92;95434.50;4913637;29;20020;-79
2021/09/08 11:38:46;;;;;;;1.98;1.85;;;;;;;20.03;50.40;95438.41;4879697;29;20028;-86
2021/09/08 11:41:12;;;;;;;;;;;;;;;20.73;48.50;95434.44;4896715;29;20024;-82
2021/09/08 11:43:44;;;;;;;3.47;1.50;;;;;;;20.69;48.26;95430.63;4914980;29;19925;-80
2021/09/08 11:46:10;;;;;;;2.55;1.67;;;;;;;20.74;50.18;95435.25;4903801;29;20031;-78
2021/09/08 11:48:36;;;;;;;4.53;2.50;;;;;;;19.93;49.65;95428.38;4912919;29;20079;-81
2021/09/08 11:51:03;;;;;;;2.40;1.75;;;;;;;20.35;48.93;95432.03;4905326;29;20020;-80
2021/09/08 11:53:28;;;;;;;2.03;1.67;;;;;;;20.93;48.96;95419.16;4889528;29;20123;-82
2021/09/08 11:56:03;;;;;;;3.60;1.58;;;;;;;21.44;46.94;95416.03;4905283;29;20054;-81
2021/09/08 11:58:28;;;;;;;1.85;1.73;;;;;;;21.04;47.71;95418.41;4912207;29;20036;-78
2021/09/08 12:01:04;;;;;;;2.72;1.80;;;;;;;20.76;48.11;95425.28;4914815;29;20090;-74
2021/09/08 12:03:29;;;;;;;2.15;1.20;;;;;;;20.68;47.56;95420.34;4939556;29;20039;-80
2021/09/08 12:06:32;;;;;;;2.92;1.55;;;;;;;21.18;46.92;95413.81;4940469;29;20398;-78
2021/09/08 12:09:00;;;;;;;3.47;1.23;;;;;;;21.18;47.29;95405.09;4918117;29;20477;-78
2021/09/08 12:11:47;;;;;;;2.88;1.65;;;;;;;20.39;47.82;95406.88;4930933;29;20039;-78
2021/09/08 12:14:34;;;;;;;2.15;1.40;;;;;;;21.25;46.10;95406.59;4926554;29;20039;-78
2021/09/08 12:17:09;;;;;;;2.17;1.50;;;;;;;21.35;46.36;95398.94;4933073;29;20373;-81
2021/09/08 12:20:03;;;;;;;1.85;1.52;;;;;;;21.23;47.00;95408.66;4939950;29;20039;-85
2021/09/08 12:22:35;;;;;;;3.28;1.83;;;;;;;21.03;47.55;95413.34;4937671;29;20143;-79
2021/09/08 12:25:11;;;;;;;2.42;1.58;;;;;;;21.08;47.48;95404.78;4924499;29;20544;-83
2021/09/08 12:27:44;;;;;;;1.92;1.52;;;;;;;21.37;47.87;95406.63;4939367;29;20513;-80
2021/09/08 12:30:18;;;;;;;1.52;1.40;;;;;;;21.50;46.10;95403.78;4940742;29;20050;-81
2021/09/08 12:32:48;;;;;;;1.95;1.70;;;;;;;21.25;46.73;95398.69;4941422;29;20027;-77
2021/09/08 12:35:32;;;;;;;;;;;;;;;21.34;46.96;95393.91;4939462;28;20046;-80
2021/09/08 12:37:58;;;;;;;4.28;1.50;;;;;;;21.70;45.35;95400.84;4938381;29;19970;-78
2021/09/08 12:40:23;;;;;;;2.10;1.60;;;;;;;21.24;46.68;95394.44;4939814;29;20059;-79
2021/09/08 12:42:49;;;;;;;1.50;1.38;;;;;;;21.28;47.38;95397.44;4939406;29;20032;-79
2021/09/08 12:45:14;;;;;;;1.85;1.60;;;;;;;21.02;46.75;95393.31;4940853;29;20028;-77
2021/09/08 12:47:54;;;;;;;4.53;1.65;;;;;;;21.15;47.40;95392.38;4940626;29;20078;-79
2021/09/08 12:50:19;;;;;;;;;;;;;;;21.03;47.55;95393.09;4941923;29;20031;-82
2021/09/08 12:52:44;;;;;;;2.53;1.50;;;;;;;20.82;47.63;95388.31;4939049;29;19977;-79
2021/09/08 12:55:10;;;;;;;1.75;1.40;;;;;;;21.14;46.93;95383.66;4939241;29;20027;-82
2021/09/08 12:57:36;;;;;;;2.25;1.45;;;;;;;21.03;47.89;95397.53;4941132;29;20023;-79
2021/09/08 13:00:02;;;;;;;2.00;1.45;;;;;;;20.85;48.10;95379.16;4937300;29;20502;-78
2021/09/08 13:02:28;;;;;;;4.95;1.85;;;;;;;20.79;48.91;95380.88;4945120;29;20047;-78
2021/09/08 13:04:53;;;;;;;1.58;1.45;;;;;;;20.62;48.16;95382.50;4948838;29;20475;-80
2021/09/08 13:07:19;;;;;;;3.22;1.70;;;;;;;21.12;48.32;95382.28;4949963;29;20031;-78
2021/09/08 13:09:44;;;;;;;4.07;1.38;;;;;;;21.49;48.27;95381.88;4949355;29;20413;-78
2021/09/08 13:12:10;;;;;;;2.22;1.65;;;;;;;21.30;48.14;95380.38;4949345;29;20069;-78
2021/09/08 13:14:35;;;;;;;3.10;1.90;;;;;;;21.10;49.21;95376.41;4946172;29;20030;-79
2021/09/08 13:17:01;;;;;;;2.03;1.60;;;;;;;21.15;47.90;95373.91;4932467;29;20071;-78
2021/09/08 13:19:26;;;;;;;1.63;1.38;;;;;;;21.06;47.47;95375.25;4925755;29;20956;-79
2021/09/08 13:21:52;;;;;;;1.95;1.40;;;;;;;21.05;47.15;95369.16;4937466;29;20481;-79
2021/09/08 13:24:17;;;;;;;2.08;1.88;;;;;;;21.11;47.93;95360.38;4940416;29;20036;-78
2021/09/08 13:26:44;;;;;;;2.50;2.00;;;;;;;20.51;47.97;95359.59;4945869;29;20032;-78
2021/09/08 13:29:10;;;;;;;1.95;1.50;;;;;;;20.83;48.56;95365.44;4931235;29;20084;-78
2021/09/08 13:31:36;;;;;;;2.42;1.60;;;;;;;20.49;48.43;95359.78;4946386;29;20036;-79
2021/09/08 13:34:03;;;;;;;2.10;1.50;;;;;;;20.55;49.21;95352.06;4926484;29;20049;-79
2021/09/08 13:36:28;;;;;;;3.33;1.60;;;;;;;20.29;49.02;95353.97;4938464;29;20031;-79
2021/09/08 13:38:54;;;;;;;1.98;1.60;;;;;;;20.54;49.38;95350.44;4937683;29;20024;-80
2021/09/08 13:41:20;;;;;;;1.90;1.67;;;;;;;20.76;48.57;95347.09;4943939;29;20492;-81
2021/09/08 13:43:46;;;;;;;2.05;1.40;;;;;;;20.88;48.39;95349.75;4930353;29;20818;-79
2021/09/08 13:46:11;;;;;;;3.25;1.63;;;;;;;20.49;48.49;95336.09;4947901;29;20136;-80
2021/09/08 13:48:37;;;;;;;1.63;1.50;;;;;;;20.58;48.86;95347.13;4942819;29;20035;-76
2021/09/08 13:51:03;;;;;;;4.10;1.80;;;;;;;20.81;48.71;95336.69;4916256;29;20043;-81
2021/09/08 13:53:30;;;;;;;1.70;1.45;;;;;;;20.54;48.07;95338.06;4932431;29;20113;-80
2021/09/08 13:55:57;;;;;;;2.42;1.67;;;;;;;20.64;48.44;95333.09;4914750;29;20068;-82
2021/09/08 13:58:23;;;;;;;3.58;1.67;;;;;;;20.37;48.64;95326.53;4916794;29;20031;-87
2021/09/08 14:00:49;;;;;;;2.30;2.10;;;;;;;19.87;49.31;95334.56;4913061;29;20041;-79
2021/09/08 14:03:14;;;;;;;1.90;1.40;;;;;;;20.01;49.11;95332.59;4951257;29;20532;-82
2021/09/08 14:05:40;;;;;;;2.55;1.77;;;;;;;19.78;49.57;95335.06;4952116;28;20065;-77
2021/09/08 14:08:05;;;;;;;2.13;1.40;;;;;;;20.05;49.85;95344.31;4952936;28;20035;-83
2021/09/08 14:10:32;;;;;;;5.50;1.63;;;;;;;19.99;49.33;95335.47;4952807;28;20027;-88
2021/09/08 14:12:58;;;;;;;3.88;1.50;;;;;;;20.33;49.05;95334.06;4950766;29;20106;-82
2021/09/08 14:15:23;;;;;;;3.38;1.65;;;;;;;20.03;49.40;95335.84;4952745;28;20433;-81
2021/09/08 14:17:49;;;;;;;3.45;1.50;;;;;;;19.95;49.82;95330.84;4950658;29;20481;-80
2021/09/08 14:20:14;;;;;;;1.45;1.35;;;;;;;19.90;50.29;95333.34;4951623;29;20386;-79
2021/09/08 14:22:40;;;;;;;2.85;1.52;;;;;;;19.78;49.73;95335.06;4935551;28;20040;-83
2021/09/08 14:25:06;;;;;;;4.10;1.77;;;;;;;19.88;50.22;95330.13;4932758;29;20198;-84
2021/09/08 14:27:32;;;;;;;1.92;1.50;;;;;;;19.98;50.67;95325.16;4936349;29;20101;-82
2021/09/08 14:29:57;;;;;;;2.55;1.40;;;;;;;20.00;49.97;95329.16;4943978;29;20485;-79
2021/09/08 14:32:23;;;;;;;1.85;1.48;;;;;;;19.98;49.75;95330.41;4950886;28;20412;-81
2021/09/08 14:34:49;;;;;;;6.20;1.55;;;;;;;20.08;50.01;95325.44;4949816;28;20031;-80
2021/09/08 14:37:14;;;;;;;2.30;1.85;;;;;;;19.86;50.38;95329.53;4965581;28;20023;-80
2021/09/08 14:39:40;;;;;;;3.00;1.50;;;;;;;19.82;49.75;95325.72;4933098;29;20051;-79
2021/09/08 14:42:05;;;;;;;2.15;1.40;;;;;;;20.05;49.48;95320.63;4933097;29;20023;-81
2021/09/08 14:44:32;;;;;;;2.10;1.58;;;;;;;19.77;50.75;95313.25;4929020;29;20028;-82
2021/09/08 14:46:58;;;;;;;3.28;1.50;;;;;;;19.90;50.12;95312.31;4933053;29;20181;-80
2021/09/08 14:49:23;;;;;;;2.42;1.35;;;;;;;19.74;50.54;95323.41;4932835;29;20031;-79
2021/09/08 14:51:49;;;;;;;3.05;1.63;;;;;;;19.60;50.31;95312.22;4932166;29;20414;-80
2021/09/08 14:54:15;;;;;;;1.65;1.52;;;;;;;20.08;50.61;95314.94;4915894;29;20032;-81
2021/09/08 14:56:41;;;;;;;2.08;1.60;;;;;;;19.63;50.29;95309.16;4931715;29;20035;-84
2021/09/08 14:59:07;;;;;;;3.30;1.63;;;;;;;19.53;50.65;95315.91;4939828;28;20038;-83
2021/09/08 15:01:32;;;;;;;3.60;1.65;;;;;;;19.55;51.02;95308.63;4932768;29;20043;-82
2021/09/08 15:03:57;;;;;;;2.88;1.67;;;;;;;19.58;50.41;95306.38;4952884;28;20074;-80
2021/09/08 15:06:23;;;;;;;4.40;1.80;;;;;;;19.27;50.89;95309.03;4947163;29;20031;-86
2021/09/08 15:08:48;;;;;;;2.80;1.67;;;;;;;19.22;51.21;95306.28;4947995;29;20038;-79
2021/09/08 15:11:14;;;;;;;3.22;1.40;;;;;;;19.33;51.40;95306.38;4950859;28;20038;-81
2021/09/08 15:13:39;;;;;;;1.95;1.55;;;;;;;18.97;51.00;95305.47;4949681;28;20544;-86
2021/09/08 15:16:05;;;;;;;3.53;1.90;;;;;;;18.90;51.71;95306.31;4951079;28;20042;-85
2021/09/08 15:18:30;;;;;;;2.70;1.33;;;;;;;18.91;51.83;95301.88;4946328;28;20039;-87
2021/09/08 15:20:56;;;;;;;1.70;1.58;;;;;;;18.80;51.55;95302.56;4940992;28;20051;-79
2021/09/08 15:23:21;;;;;;;5.22;1.70;;;;;;;18.86;52.46;95305.13;4934125;29;20504;-82
2021/09/08 15:25:47;;;;;;;3.30;1.70;;;;;;;18.83;52.61;95302.13;4929583;29;20083;-83
2021/09/08 15:28:12;;;;;;;2.45;1.65;;;;;;;18.70;52.04;95295.16;4929252;29;20099;-81
2021/09/08 15:30:38;;;;;;;1.70;1.30;;;;;;;18.62;52.58;95305.09;4931624;29;20040;-83
2021/09/08 15:33:03;;;;;;;4.05;1.85;;;;;;;18.59;52.44;95305.53;4931384;29;20034;-92
2021/09/08 15:35:29;;;;;;;2.70;1.63;;;;;;;18.61;53.38;95296.44;4929486;29;20034;-83
2021/09/08 15:37:54;;;;;;;2.08;1.42;;;;;;;18.57;52.92;95303.09;4931047;29;20028;-84
2021/09/08 15:40:20;;;;;;;2.30;1.65;;;;;;;18.45;52.88;95296.91;4931129;29;20031;-78
2021/09/08 15:42:45;;;;;;;2.25;1.20;;;;;;;18.40;53.13;95291.47;4947102;29;20032;-78
2021/09/08 15:45:11;;;;;;;3.65;1.23;;;;;;;18.40;53.09;95288.84;4931369;29;20027;-79
2021/09/08 15:47:36;;;;;;;2.05;1.40;;;;;;;18.35;53.06;95286.84;4932033;29;20111;-82
2021/09/08 15:50:04;;;;;;;1.40;1.30;;;;;;;18.28;53.04;95296.56;4946419;29;20074;-80
2021/09/08 15:52:29;;;;;;;2.15;1.23;;;;;;;18.28;53.41;95295.75;4945643;29;20050;-77
2021/09/08 15:54:55;;;;;;;3.28;1.40;;;;;;;18.23;53.89;95295.59;4932158;29;20023;-81
2021/09/08 15:57:20;;;;;;;4.03;1.33;;;;;;;18.15;53.84;95287.97;4929650;29;20035;-79
2021/09/08 15:59:46;;;;;;;2.28;1.73;;;;;;;18.10;54.19;95293.84;4931678;29;20040;-84
2021/09/08 16:02:11;;;;;;;1.85;1.23;;;;;;;18.12;54.00;95289.19;4929288;29;20055;-82
2021/09/08 16:04:37;;;;;;;3.40;1.10;;;;;;;18.02;54.52;95286.19;4930610;29;20032;-86
2021/09/08 16:07:03;;;;;;;1.60;1.05;;;;;;;17.95;54.25;95280.19;4933617;29;20030;-82
2021/09/08 16:09:29;;;;;;;3.05;1.40;;;;;;;17.93;54.55;95284.84;4946784;28;20417;-86
2021/09/08 16:11:54;;;;;;;3.90;1.20;;;;;;;17.91;54.36;95294.72;4946546;28;20027;-88
2021/09/08 16:14:20;;;;;;;1.75;1.10;;;;;;;17.92;54.14;95285.06;4948170;29;20028;-82
2021/09/08 16:16:46;;;;;;;2.05;1.23;;;;;;;17.89;54.46;95283.63;4927762;29;20039;-83
2021/09/08 16:19:12;;;;;;;2.03;1.55;;;;;;;17.85;55.05;95279.84;4940458;29;20091;-83
2021/09/08 16:21:38;;;;;;;2.58;1.25;;;;;;;17.77;55.58;95278.25;4930698;29;20027;-83
2021/09/08 16:24:04;;;;;;;1.63;1.23;;;;;;;17.73;56.32;95273.59;4928823;29;20060;-83
2021/09/08 16:26:29;;;;;;;4.50;1.98;;;;;;;17.66;56.52;95284.09;4929924;29;20028;-82
2021/09/08 16:28:55;;;;;;;3.05;1.60;;;;;;;17.60;58.38;95284.13;4930748;29;20105;-82
2021/09/08 16:31:20;;;;;;;2.72;1.38;;;;;;;17.50;56.81;95281.13;4930710;29;20568;-84
2021/09/08 16:33:46;;;;;;;3.20;1.80;;;;;;;17.47;57.39;95281.50;4931329;29;20032;-83